Time;durP1;ratioP1;P1;durP2;ratioP2;P2;SDS_P1;SDS_P2;PMS_P1;PMS_P2;Temp;Humidity;BMP_temperature;BMP_pressure;BME280_temperature;BME280_humidity;BME280_pressure;Samples;Min_cycle;Max_cycle;Signal;HPM_P1;HPM_P2
2021/11/09 00:02:01;;;;;;;28.02;5.80;;;;;;;-142.75;100.00;78547.13;5041188;28;20025;-69
2021/11/09 00:04:34;;;;;;;19.43;5.70;;;;;;;-142.75;100.00;78551.06;5036297;28;20028;-70
2021/11/09 00:07:06;;;;;;;21.07;5.80;;;;;;;-142.75;100.00;78556.97;5037927;28;20499;-72
2021/11/09 00:09:45;;;;;;;21.37;5.67;;;;;;;-142.75;100.00;78566.81;5038768;28;20462;-69
2021/11/09 00:12:10;;;;;;;18.63;5.77;;;;;;;-142.75;100.00;78570.75;5039160;28;20072;-70
2021/11/09 00:14:35;;;;;;;22.27;6.18;;;;;;;-142.75;100.00;78562.88;5039230;28;20017;-69
2021/11/09 00:17:01;;;;;;;25.53;6.10;;;;;;;-142.75;100.00;78560.91;5020231;28;20036;-69
2021/11/09 00:19:26;;;;;;;20.27;5.47;;;;;;;-142.75;100.00;78560.91;5021102;28;20304;-69
2021/11/09 00:21:51;;;;;;;23.90;6.47;;;;;;;-142.75;100.00;78555.00;5027759;28;20044;-68
2021/11/09 00:24:17;;;;;;;18.33;6.20;;;;;;;-142.75;100.00;78574.69;5041885;28;20074;-70
2021/11/09 00:26:42;;;;;;;18.67;6.45;;;;;;;-142.75;100.00;78568.78;5037338;28;20510;-69
2021/11/09 00:29:08;;;;;;;24.40;6.93;;;;;;;-142.75;100.00;78568.78;5026301;28;20135;-69
2021/11/09 00:31:34;;;;;;;26.38;6.68;;;;;;;-142.75;100.00;78580.59;5034982;28;20271;-69
2021/11/09 00:33:59;;;;;;;19.65;6.35;;;;;;;-142.75;100.00;78584.56;5043977;28;20021;-69
2021/11/09 00:36:25;;;;;;;19.15;7.07;;;;;;;-142.75;100.00;78596.38;5041677;28;20514;-69
2021/11/09 00:38:51;;;;;;;23.30;6.75;;;;;;;-142.75;100.00;78586.53;5044292;28;20036;-69
2021/11/09 00:41:16;;;;;;;18.02;5.70;;;;;;;-142.75;100.00;78582.59;5039745;28;20029;-71
2021/11/09 00:43:42;;;;;;;29.02;7.18;;;;;;;-142.75;100.00;78580.59;5046784;28;20036;-69
2021/11/09 00:46:08;;;;;;;19.67;6.47;;;;;;;-142.75;100.00;78586.53;5040601;28;20505;-68
2021/11/09 00:48:33;;;;;;;24.00;8.38;;;;;;;-142.75;100.00;78606.22;5022592;28;20029;-70
2021/11/09 00:50:58;;;;;;;29.98;8.18;;;;;;;-142.75;100.00;78598.34;5040688;28;20052;-69
2021/11/09 00:53:24;;;;;;;23.67;7.20;;;;;;;-142.75;100.00;78586.53;5041053;28;20022;-69
2021/11/09 00:55:50;;;;;;;25.15;7.43;;;;;;;-142.75;100.00;78590.47;5040820;28;20064;-68
2021/11/09 00:58:16;;;;;;;30.15;8.00;;;;;;;-142.75;100.00;78610.16;5039081;28;20104;-69
2021/11/09 01:00:42;;;;;;;27.20;8.33;;;;;;;-142.75;100.00;78616.06;5018525;28;20048;-70
2021/11/09 01:03:08;;;;;;;;;;;;;;;-142.75;100.00;78606.22;5036006;28;20416;-69
2021/11/09 01:05:35;;;;;;;29.27;7.30;;;;;;;-142.75;100.00;78610.16;5036972;28;20325;-70
2021/11/09 01:08:04;;;;;;;29.53;8.27;;;;;;;-142.75;100.00;78604.25;5042490;28;20076;-69
2021/11/09 01:10:35;;;;;;;32.10;8.87;;;;;;;-142.75;100.00;78625.91;5037231;28;20025;-69
2021/11/09 01:13:01;;;;;;;33.03;9.30;;;;;;;-142.75;100.00;78621.97;5040920;28;20184;-68
2021/11/09 01:15:28;;;;;;;29.88;8.73;;;;;;;-142.75;100.00;78633.78;5021527;28;20116;-69
2021/11/09 01:17:57;;;;;;;38.43;8.60;;;;;;;-142.75;100.00;78625.91;5029473;28;20099;-68
2021/11/09 01:20:23;;;;;;;27.47;9.50;;;;;;;-142.75;100.00;78620.00;5033296;28;20040;-70
2021/11/09 01:22:52;;;;;;;28.27;8.43;;;;;;;-142.75;100.00;78614.09;5040379;28;20104;-67
2021/11/09 01:25:19;;;;;;;27.10;8.57;;;;;;;-142.75;100.00;78616.06;5040375;28;20433;-69
2021/11/09 01:27:45;;;;;;;26.73;7.97;;;;;;;-142.75;100.00;78618.03;5042106;28;20029;-71
2021/11/09 01:30:14;;;;;;;30.85;8.88;;;;;;;-142.75;100.00;78625.91;5041401;28;20100;-69
2021/11/09 01:32:40;;;;;;;32.97;9.07;;;;;;;-142.75;100.00;78620.00;5021176;28;20116;-70
2021/11/09 01:35:07;;;;;;;29.55;8.48;;;;;;;-142.75;100.00;78621.97;5017819;28;20394;-68
2021/11/09 01:37:33;;;;;;;20.17;7.27;;;;;;;-142.75;100.00;78614.09;5020303;28;20024;-69
2021/11/09 01:39:58;;;;;;;25.38;7.07;;;;;;;-142.75;100.00;78606.22;5040956;28;20819;-70
2021/11/09 01:42:23;;;;;;;21.90;7.57;;;;;;;-142.75;100.00;78618.03;5026880;28;20036;-69
2021/11/09 01:44:49;;;;;;;23.33;7.50;;;;;;;-142.75;100.00;78594.41;5021078;28;20487;-68
2021/11/09 01:47:15;;;;;;;20.77;7.25;;;;;;;-142.75;100.00;78606.22;5032185;28;20498;-69
2021/11/09 01:49:41;;;;;;;28.30;8.15;;;;;;;-142.75;100.00;78610.16;5040469;28;20017;-72
2021/11/09 01:52:07;;;;;;;31.30;8.15;;;;;;;-142.75;100.00;78610.16;5041878;28;20021;-67
2021/11/09 01:54:32;;;;;;;29.23;7.93;;;;;;;-142.75;100.00;78612.13;5024876;28;20029;-68
2021/11/09 01:56:58;;;;;;;30.85;8.18;;;;;;;-142.75;100.00;78633.78;5019335;28;20029;-69
2021/11/09 01:59:24;;;;;;;30.33;8.15;;;;;;;-142.75;100.00;78641.66;5034008;28;20394;-67
2021/11/09 02:01:49;;;;;;;23.13;7.53;;;;;;;-142.75;100.00;78637.72;5034554;28;20025;-67
2021/11/09 02:04:15;;;;;;;27.10;8.23;;;;;;;-142.75;100.00;78623.94;5022611;28;20028;-69
2021/11/09 02:06:40;;;;;;;29.42;8.40;;;;;;;-142.75;100.00;78629.84;5021329;28;20017;-69
2021/11/09 02:09:09;;;;;;;27.08;7.72;;;;;;;-142.75;100.00;78623.94;5039328;28;20037;-68
2021/11/09 02:11:35;;;;;;;26.10;7.93;;;;;;;-142.75;100.00;78631.81;5033596;28;20044;-69
2021/11/09 02:14:01;;;;;;;24.95;8.15;;;;;;;-142.75;100.00;78641.66;5038406;28;20034;-69
2021/11/09 02:16:27;;;;;;;29.20;8.63;;;;;;;-142.75;100.00;78637.72;5038348;28;20025;-68
2021/11/09 02:18:52;;;;;;;;;;;;;;;-142.75;100.00;78635.75;5024950;28;20021;-69
2021/11/09 02:21:19;;;;;;;30.00;8.47;;;;;;;-142.75;100.00;78631.81;5040966;28;19921;-68
2021/11/09 02:23:45;;;;;;;32.30;8.57;;;;;;;-142.75;100.00;78633.78;5015192;28;20375;-69
2021/11/09 02:26:12;;;;;;;32.93;9.43;;;;;;;-142.75;100.00;78618.03;5022124;28;20025;-69
2021/11/09 02:28:38;;;;;;;26.27;8.37;;;;;;;-142.75;100.00;78625.91;5033994;28;20032;-67
2021/11/09 02:31:05;;;;;;;28.23;7.47;;;;;;;-142.75;100.00;78623.94;5032867;28;20117;-69
2021/11/09 02:33:31;;;;;;;32.70;8.63;;;;;;;-142.75;100.00;78614.09;5033860;28;20024;-69
2021/11/09 02:35:56;;;;;;;29.77;7.82;;;;;;;-142.75;100.00;78614.09;5029075;28;20021;-69
2021/11/09 02:38:22;;;;;;;33.13;8.48;;;;;;;-142.75;100.00;78610.16;5038635;28;20021;-69
2021/11/09 02:40:47;;;;;;;28.13;7.05;;;;;;;-142.75;100.00;78614.09;5046078;28;20090;-69
2021/11/09 02:43:15;;;;;;;28.75;7.70;;;;;;;-142.75;100.00;78612.13;5034156;28;20028;-70
2021/11/09 02:48:37;;;;;;;32.47;7.37;;;;;;;-142.75;100.00;78602.28;5034748;28;20044;-69
2021/11/09 02:51:18;;;;;;;31.57;8.30;;;;;;;-142.75;100.00;78602.28;5041775;28;20045;-69
2021/11/09 02:56:21;;;;;;;30.88;7.95;;;;;;;-142.75;100.00;78610.16;5042576;28;20040;-69
2021/11/09 03:03:51;;;;;;;24.97;6.77;;;;;;;-142.75;100.00;78594.41;5037369;28;20370;-69
2021/11/09 03:06:34;;;;;;;25.97;8.30;;;;;;;-142.75;100.00;78598.34;5039678;28;20055;-69
2021/11/09 03:09:10;;;;;;;28.73;7.90;;;;;;;-142.75;100.00;78586.53;5040427;28;20127;-69
2021/11/09 03:11:40;;;;;;;20.27;7.00;;;;;;;-142.75;100.00;78594.41;5032824;28;20021;-68
2021/11/09 03:14:06;;;;;;;27.63;7.40;;;;;;;-142.75;100.00;78570.75;5027448;28;20027;-68
2021/11/09 03:16:35;;;;;;;36.55;7.70;;;;;;;-142.75;100.00;78592.44;5022366;28;20025;-69
2021/11/09 03:46:30;;;;;;;27.07;7.83;;;;;;;-142.75;100.00;78633.78;5041878;28;20217;-71
2021/11/09 03:48:56;;;;;;;24.13;8.77;;;;;;;-142.75;100.00;78633.78;5042695;28;20025;-70
2021/11/09 03:51:21;;;;;;;28.02;8.55;;;;;;;-142.75;100.00;78623.94;5031329;28;20033;-68
2021/11/09 03:53:47;;;;;;;22.45;7.57;;;;;;;-142.75;100.00;78620.00;5019493;28;20017;-69
2021/11/09 03:56:22;;;;;;;24.90;8.38;;;;;;;-142.75;100.00;78618.03;5031758;28;20096;-69
2021/11/09 03:58:49;;;;;;;33.13;8.83;;;;;;;-142.75;100.00;78631.81;5021782;28;20025;-69
2021/11/09 04:01:20;;;;;;;21.23;8.20;;;;;;;-142.75;100.00;78625.91;5041430;28;20082;-70
2021/11/09 04:03:58;;;;;;;32.40;9.17;;;;;;;-142.75;100.00;78633.78;5039507;28;20111;-69
2021/11/09 04:06:31;;;;;;;24.40;7.90;;;;;;;-142.75;100.00;78635.75;5041794;28;20082;-69
2021/11/09 04:16:52;;;;;;;24.80;8.67;;;;;;;-142.75;100.00;78657.41;5035074;28;20033;-69
2021/11/09 04:19:44;;;;;;;27.70;8.90;;;;;;;-142.75;100.00;78645.59;5021761;28;20024;-71
2021/11/09 04:23:07;;;;;;;35.90;10.63;;;;;;;-142.75;100.00;78663.31;5034865;28;20042;-71
2021/11/09 04:25:20;;;;;;;23.17;9.53;;;;;;;-142.75;100.00;78681.06;5040786;28;20032;-69
2021/11/09 04:27:59;;;;;;;28.43;9.17;;;;;;;-142.75;100.00;78700.75;5035070;28;20404;-69
2021/11/09 04:33:20;;;;;;;34.40;11.67;;;;;;;-142.75;100.00;78708.63;5044590;28;20116;-67
2021/11/09 04:39:14;;;;;;;28.60;10.20;;;;;;;-142.75;100.00;78716.50;5037785;28;20426;-69
2021/11/09 04:42:30;;;;;;;36.23;11.53;;;;;;;-142.75;100.00;78724.38;5035022;28;20067;-71
2021/11/09 04:52:28;;;;;;;37.57;11.37;;;;;;;-142.75;100.00;78706.66;5041677;28;20036;-69
2021/11/09 05:10:44;;;;;;;28.40;11.27;;;;;;;-142.75;100.00;78716.50;5052801;22;20045;-67
2021/11/09 05:13:10;;;;;;;;;;;;;;;-142.75;100.00;78718.47;5029550;28;20025;-66
2021/11/09 05:15:35;;;;;;;32.97;11.60;;;;;;;-142.75;100.00;78718.47;5029170;28;19919;-66
2021/11/09 05:18:01;;;;;;;33.65;12.13;;;;;;;-142.75;100.00;78740.13;5029301;28;20021;-66
2021/11/09 05:20:27;;;;;;;32.33;10.85;;;;;;;-142.75;100.00;78738.16;5028287;28;20475;-65
2021/11/09 05:22:52;;;;;;;;;;;;;;;-142.75;100.00;78750.00;5029999;28;20029;-66
2021/11/09 05:25:18;;;;;;;33.90;11.40;;;;;;;-142.75;100.00;78740.13;5047238;28;20305;-66
2021/11/09 05:27:46;;;;;;;;;;;;;;;-142.75;100.00;78738.16;5030153;28;20025;-66
2021/11/09 05:30:12;;;;;;;26.43;11.37;;;;;;;-142.75;100.00;78736.19;5048124;28;20266;-66
2021/11/09 05:32:37;;;;;;;;;;;;;;;-142.75;100.00;78724.38;5049029;28;20021;-66
2021/11/09 05:35:04;;;;;;;30.50;11.53;;;;;;;-142.75;100.00;78728.31;5048661;28;19913;-66
2021/11/09 05:37:35;;;;;;;33.43;11.23;;;;;;;-142.75;100.00;78728.31;5048849;28;20060;-66
2021/11/09 05:40:05;;;;;;;27.73;11.23;;;;;;;-142.75;100.00;78718.47;5047656;28;20107;-66
2021/11/09 05:42:30;;;;;;;36.27;12.17;;;;;;;-142.75;100.00;78720.44;5047966;28;20071;-66
2021/11/09 05:44:56;;;;;;;30.48;11.68;;;;;;;-142.75;100.00;78722.41;5047917;28;20029;-67
2021/11/09 05:47:21;;;;;;;41.03;11.80;;;;;;;-142.75;100.00;78712.56;5047769;28;20487;-66
2021/11/09 05:49:46;;;;;;;30.75;11.60;;;;;;;-142.75;100.00;78722.41;5047465;28;20029;-66
2021/11/09 05:52:12;;;;;;;25.20;10.83;;;;;;;-142.75;100.00;78734.22;5048297;28;20470;-66
2021/11/09 05:54:38;;;;;;;28.83;10.60;;;;;;;-142.75;100.00;78740.13;5047612;28;20318;-66
2021/11/09 05:57:04;;;;;;;27.33;10.75;;;;;;;-142.75;100.00;78736.19;5029288;28;20660;-66
2021/11/09 05:59:29;;;;;;;31.98;11.82;;;;;;;-142.75;100.00;78716.50;5027903;28;20055;-66
2021/11/09 06:01:55;;;;;;;31.05;11.40;;;;;;;-142.75;100.00;78716.50;5027132;28;20030;-66
2021/11/09 06:04:20;;;;;;;33.03;12.48;;;;;;;-142.75;100.00;78708.63;5027775;28;20033;-65
2021/11/09 06:06:45;;;;;;;31.97;12.17;;;;;;;-142.75;100.00;78704.69;5028225;28;20541;-67
2021/11/09 06:09:11;;;;;;;39.63;13.48;;;;;;;-142.75;100.00;78706.66;5027997;28;20021;-67
2021/11/09 06:11:36;;;;;;;30.45;11.10;;;;;;;-142.75;100.00;78698.78;5026961;28;20021;-66
2021/11/09 06:14:02;;;;;;;30.27;11.95;;;;;;;-142.75;100.00;78700.75;5027731;28;20021;-66
2021/11/09 06:16:28;;;;;;;27.43;12.07;;;;;;;-142.75;100.00;78696.81;5027802;28;20026;-66
2021/11/09 06:18:53;;;;;;;29.90;10.90;;;;;;;-142.75;100.00;78704.69;5027853;28;20026;-66
2021/11/09 06:21:18;;;;;;;27.73;10.68;;;;;;;-142.75;100.00;78696.81;5027520;28;20342;-66
2021/11/09 06:23:44;;;;;;;36.45;11.35;;;;;;;-142.75;100.00;78698.78;5027582;28;20116;-67
2021/11/09 06:26:10;;;;;;;32.17;11.50;;;;;;;-142.75;100.00;78694.84;5009910;28;20029;-67
2021/11/09 06:28:37;;;;;;;39.03;11.43;;;;;;;-142.75;100.00;78694.84;5027711;28;20085;-66
2021/11/09 06:31:02;;;;;;;32.83;10.93;;;;;;;-142.75;100.00;78688.94;5026704;28;20471;-67
2021/11/09 06:33:30;;;;;;;31.38;11.13;;;;;;;-142.75;100.00;78685.00;5027721;28;20029;-66
2021/11/09 06:35:56;;;;;;;34.47;11.40;;;;;;;-142.75;100.00;78685.00;5027696;28;20025;-67
2021/11/09 06:38:21;;;;;;;31.10;11.32;;;;;;;-142.75;100.00;78685.00;5027470;28;20104;-67
2021/11/09 06:40:46;;;;;;;28.52;11.23;;;;;;;-142.75;100.00;78681.06;5027228;28;20036;-66
2021/11/09 06:43:12;;;;;;;33.30;11.43;;;;;;;-142.75;100.00;78677.13;5027487;28;20022;-67
2021/11/09 06:45:37;;;;;;;30.77;10.38;;;;;;;-142.75;100.00;78685.00;5027710;28;20112;-67
2021/11/09 06:48:04;;;;;;;31.02;11.32;;;;;;;-142.75;100.00;78681.06;5031718;28;20051;-66
2021/11/09 06:50:30;;;;;;;32.23;11.33;;;;;;;-142.75;100.00;78694.84;5031797;28;20033;-66
2021/11/09 06:52:57;;;;;;;27.15;11.02;;;;;;;-142.75;100.00;78688.94;5032558;28;20078;-67
2021/11/09 06:55:22;;;;;;;32.93;11.07;;;;;;;-142.75;100.00;78688.94;5032447;28;20573;-66
2021/11/09 06:57:48;;;;;;;33.10;10.75;;;;;;;-142.75;100.00;78696.81;5032761;28;20104;-67
2021/11/09 07:00:16;;;;;;;29.38;11.57;;;;;;;-142.75;100.00;78694.84;5031779;28;20029;-67
2021/11/09 07:02:42;;;;;;;33.57;11.60;;;;;;;-142.75;100.00;78694.84;5032292;28;20084;-66
2021/11/09 07:05:08;;;;;;;35.60;11.80;;;;;;;-142.75;100.00;78696.81;5032231;28;20358;-66
2021/11/09 07:07:34;;;;;;;25.70;10.95;;;;;;;-142.75;100.00;78692.88;5014367;28;20112;-67
2021/11/09 07:09:59;;;;;;;32.28;10.77;;;;;;;-142.75;100.00;78677.13;5013371;28;20029;-67
2021/11/09 07:12:24;;;;;;;29.08;10.30;;;;;;;-142.75;100.00;78683.03;5032251;28;20541;-66
2021/11/09 07:14:51;;;;;;;36.53;10.63;;;;;;;-142.75;100.00;78671.22;5032192;28;20022;-65
2021/11/09 07:17:17;;;;;;;36.43;12.10;;;;;;;-142.75;100.00;78681.06;5031140;28;20777;-66
2021/11/09 07:19:47;;;;;;;33.83;10.63;;;;;;;-142.75;100.00;78667.25;5031408;28;20110;-66
2021/11/09 07:22:13;;;;;;;31.20;11.40;;;;;;;-142.75;100.00;78665.28;5031900;28;20025;-65
2021/11/09 07:24:39;;;;;;;28.83;11.45;;;;;;;-142.75;100.00;78653.47;5031983;28;20025;-65
2021/11/09 07:27:04;;;;;;;32.05;10.45;;;;;;;-142.75;100.00;78657.41;5032103;28;20021;-65
2021/11/09 07:29:29;;;;;;;34.47;11.40;;;;;;;-142.75;100.00;78647.56;5031852;28;20418;-66
2021/11/09 07:31:56;;;;;;;36.33;11.57;;;;;;;-142.75;100.00;78649.53;5030888;28;20101;-67
2021/11/09 07:34:22;;;;;;;36.67;11.70;;;;;;;-142.75;100.00;78657.41;5031538;28;20275;-68
2021/11/09 07:36:47;;;;;;;43.90;13.20;;;;;;;-142.75;100.00;78631.81;5031990;28;20475;-67
2021/11/09 07:39:13;;;;;;;37.88;12.02;;;;;;;-142.75;100.00;78633.78;5031723;28;20030;-67
2021/11/09 07:41:41;;;;;;;30.13;10.95;;;;;;;-142.75;100.00;78618.03;5030767;28;20323;-67
2021/11/09 07:44:08;;;;;;;28.10;10.67;;;;;;;-142.75;100.00;78629.84;5031547;28;20030;-67
2021/11/09 07:46:34;;;;;;;36.10;12.73;;;;;;;-142.75;100.00;78627.88;5031401;28;20032;-66
2021/11/09 07:48:59;;;;;;;;;;;;;;;-142.75;100.00;78618.03;5029928;28;20083;-66
2021/11/09 07:51:25;;;;;;;36.47;11.87;;;;;;;-142.75;100.00;78623.94;5029586;28;19917;-66
2021/11/09 07:53:50;;;;;;;38.20;12.30;;;;;;;-142.75;100.00;78627.88;5030510;28;20090;-65
2021/11/09 07:56:21;;;;;;;31.13;11.48;;;;;;;-142.75;100.00;78620.00;5030756;28;20427;-66
2021/11/09 07:58:59;;;;;;;30.97;11.60;;;;;;;-142.75;100.00;78614.09;5028980;28;20115;-65
2021/11/09 08:01:31;;;;;;;33.60;10.30;;;;;;;-142.75;100.00;78602.28;5029586;28;20029;-66
2021/11/09 08:04:09;;;;;;;40.33;12.00;;;;;;;-142.75;100.00;78598.34;5030322;28;20371;-66
2021/11/09 08:11:48;;;;;;;36.37;11.77;;;;;;;-142.75;100.00;78594.41;5049563;28;20064;-67
2021/11/09 08:14:14;;;;;;;29.80;13.37;;;;;;;-142.75;100.00;78598.34;5050328;28;20029;-67
2021/11/09 08:16:39;;;;;;;32.00;12.80;;;;;;;-142.75;100.00;78582.59;5049793;28;20032;-67
2021/11/09 08:19:06;;;;;;;41.22;12.73;;;;;;;-142.75;100.00;78586.53;5049917;28;20083;-67
2021/11/09 08:21:32;;;;;;;31.63;12.68;;;;;;;-142.75;100.00;78576.66;5048971;28;20822;-68
2021/11/09 08:23:58;;;;;;;36.57;12.27;;;;;;;-142.75;100.00;78570.75;5049939;28;20031;-67
2021/11/09 08:26:25;;;;;;;34.92;13.10;;;;;;;-142.75;100.00;78570.75;5049743;28;20033;-67
2021/11/09 08:28:53;;;;;;;43.37;12.67;;;;;;;-142.75;100.00;78572.72;5049899;28;20063;-67
2021/11/09 08:31:21;;;;;;;33.87;12.10;;;;;;;-142.75;100.00;78553.03;5048916;28;20051;-67
2021/11/09 08:33:46;;;;;;;30.60;11.87;;;;;;;-142.75;100.00;78543.19;5050062;28;20013;-67
2021/11/09 08:36:16;;;;;;;36.88;11.68;;;;;;;-142.75;100.00;78543.19;5049443;28;20556;-67
2021/11/09 08:38:43;;;;;;;33.53;11.50;;;;;;;-142.75;100.00;78541.22;5049628;28;20056;-67
2021/11/09 08:41:10;;;;;;;33.97;11.70;;;;;;;-142.75;100.00;78527.44;5048618;28;20541;-67
2021/11/09 08:43:38;;;;;;;34.80;10.80;;;;;;;-142.75;100.00;78517.59;5049402;28;20375;-67
2021/11/09 08:46:29;;;;;;;27.30;10.67;;;;;;;-142.75;100.00;78515.63;5049571;28;20421;-67
2021/11/09 08:48:53;;;;;;;33.17;11.60;;;;;;;-142.75;100.00;78507.75;5027970;28;20044;-70
2021/11/09 08:51:21;;;;;;;27.23;11.03;;;;;;;-142.75;100.00;78501.84;5011036;28;20033;-67
2021/11/09 08:54:11;;;;;;;34.17;11.60;;;;;;;-142.75;100.00;78480.16;5029478;28;20063;-67
2021/11/09 08:56:54;;;;;;;30.17;9.93;;;;;;;-142.75;100.00;78488.03;5029404;28;20033;-67
2021/11/09 09:04:50;;;;;;;37.00;11.50;;;;;;;-142.75;100.00;78466.38;5029944;28;20044;-67
2021/11/09 09:07:15;;;;;;;33.20;10.73;;;;;;;-142.75;100.00;78452.59;5029362;28;20021;-67
2021/11/09 09:09:41;;;;;;;33.17;11.50;;;;;;;-142.75;100.00;78436.84;5027764;28;20033;-67
2021/11/09 09:12:06;;;;;;;27.17;10.70;;;;;;;-142.75;100.00;78460.47;5028885;28;20399;-67
2021/11/09 09:14:33;;;;;;;37.60;12.15;;;;;;;-142.75;100.00;78432.91;5028821;28;20031;-68
2021/11/09 09:17:00;;;;;;;35.63;12.00;;;;;;;-142.75;100.00;78409.28;5028715;28;20023;-67
2021/11/09 09:19:30;;;;;;;30.00;11.20;;;;;;;-142.75;100.00;78403.38;5028683;28;20108;-67
2021/11/09 09:22:04;;;;;;;38.90;10.93;;;;;;;-142.75;100.00;78407.31;5010361;28;20041;-67
2021/11/09 09:32:24;;;;;;;32.80;10.70;;;;;;;-142.75;100.00;78413.22;5027702;28;20475;-66
2021/11/09 09:54:19;;;;;;;30.90;11.07;;;;;;;-142.75;100.00;78395.47;5048635;28;20043;-67
2021/11/09 09:56:52;;;;;;;28.83;11.53;;;;;;;-142.75;100.00;78377.75;5048619;28;20036;-67
2021/11/09 09:59:21;;;;;;;36.80;12.17;;;;;;;-142.75;100.00;78369.88;5030629;28;20029;-67
2021/11/09 10:02:07;;;;;;;33.13;11.60;;;;;;;-142.75;100.00;78354.13;5047429;28;20041;-67
2021/11/09 10:04:36;;;;;;;31.77;11.20;;;;;;;-142.75;100.00;78371.84;5048274;28;20079;-67
2021/11/09 10:07:03;;;;;;;31.73;11.73;;;;;;;-142.75;100.00;78344.28;5046237;28;20115;-67
2021/11/09 10:09:35;;;;;;;35.35;13.30;;;;;;;-142.75;100.00;78346.25;5048084;28;20082;-67
2021/11/09 10:12:30;;;;;;;37.88;12.68;;;;;;;-142.75;100.00;78342.31;5043422;28;20498;-69
2021/11/09 10:14:57;;;;;;;36.42;12.27;;;;;;;-142.75;100.00;78330.50;5027615;28;20080;-67
2021/11/09 10:17:25;;;;;;;33.45;10.43;;;;;;;-142.75;100.00;78348.22;5027801;28;20040;-67
2021/11/09 10:19:52;;;;;;;38.08;12.25;;;;;;;-142.75;100.00;78336.41;5009455;28;20079;-67
2021/11/09 10:22:19;;;;;;;32.10;11.07;;;;;;;-142.75;100.00;78363.97;5032105;28;20529;-67
2021/11/09 10:24:54;;;;;;;34.25;11.35;;;;;;;-142.75;100.00;78326.56;5014674;28;20064;-67
2021/11/09 10:27:19;;;;;;;38.45;12.23;;;;;;;-142.75;100.00;78320.66;5032190;28;20025;-68
2021/11/09 10:29:46;;;;;;;31.13;10.70;;;;;;;-142.75;100.00;78306.88;5031380;28;20040;-67
2021/11/09 10:32:18;;;;;;;42.42;11.68;;;;;;;-142.75;100.00;78302.94;5031689;28;20037;-67
2021/11/09 10:34:44;;;;;;;39.30;12.40;;;;;;;-142.75;100.00;78320.66;5031991;28;20033;-67
2021/11/09 10:37:18;;;;;;;32.28;11.10;;;;;;;-142.75;100.00;78279.28;5031916;28;20033;-68
2021/11/09 10:39:46;;;;;;;29.35;10.95;;;;;;;-142.75;100.00;78249.75;5031073;28;20025;-67
2021/11/09 10:42:19;;;;;;;33.47;11.32;;;;;;;-142.75;100.00;78255.66;5030107;28;20025;-67
2021/11/09 10:44:56;;;;;;;39.35;12.73;;;;;;;-142.75;100.00;78293.06;5038756;28;20036;-67
2021/11/09 10:47:30;;;;;;;36.83;11.60;;;;;;;-142.75;100.00;78287.16;5051481;28;20402;-68
2021/11/09 10:50:00;;;;;;;32.95;12.68;;;;;;;-142.75;100.00;78257.63;5050539;28;20033;-67
2021/11/09 10:52:31;;;;;;;33.78;11.50;;;;;;;-142.75;100.00;78277.31;5051352;28;20031;-67
2021/11/09 10:55:07;;;;;;;40.72;11.85;;;;;;;-142.75;100.00;78275.34;5051457;28;20027;-68
2021/11/09 10:57:45;;;;;;;35.33;12.57;;;;;;;-142.75;100.00;78271.41;5051450;28;20494;-67
2021/11/09 11:05:22;;;;;;;37.75;12.13;;;;;;;-142.75;100.00;78204.47;5052184;28;20036;-68
2021/11/09 11:07:55;;;;;;;35.50;12.02;;;;;;;-142.75;100.00;78226.13;5050440;28;20060;-68
2021/11/09 11:12:53;;;;;;;34.05;11.38;;;;;;;-142.75;100.00;78235.97;5034915;28;20048;-68
2021/11/09 11:15:20;;;;;;;41.33;12.55;;;;;;;-142.75;100.00;78235.97;5047056;28;20060;-71
2021/11/09 11:17:45;;;;;;;37.63;11.60;;;;;;;-142.75;100.00;78243.84;5044882;28;20017;-70
2021/11/09 11:20:11;;;;;;;34.38;12.43;;;;;;;-142.75;100.00;78235.97;5038488;28;20079;-72
2021/11/09 11:22:36;;;;;;;30.58;11.55;;;;;;;-142.75;100.00;78253.69;5031103;28;20428;-69
2021/11/09 11:25:02;;;;;;;38.38;12.93;;;;;;;-142.75;100.00;78245.81;5045445;28;20025;-70
2021/11/09 11:27:32;;;;;;;40.25;13.35;;;;;;;-142.75;100.00;78220.22;5035308;28;20079;-70
2021/11/09 11:30:01;;;;;;;30.85;10.80;;;;;;;-142.75;100.00;78239.91;5041644;28;20021;-71
2021/11/09 11:32:26;;;;;;;36.33;12.10;;;;;;;-142.75;100.00;78220.22;5042542;28;20021;-71
2021/11/09 11:34:53;;;;;;;38.67;11.90;;;;;;;-142.75;100.00;78202.50;5041374;28;20037;-72
2021/11/09 11:37:19;;;;;;;33.65;12.88;;;;;;;-142.75;100.00;78204.47;5025508;28;20533;-69
2021/11/09 11:39:47;;;;;;;35.28;12.05;;;;;;;-142.75;100.00;78204.47;5026358;28;20033;-69
2021/11/09 11:42:17;;;;;;;35.75;13.02;;;;;;;-142.75;100.00;78226.13;5045930;28;20025;-69
2021/11/09 11:44:53;;;;;;;38.38;13.00;;;;;;;-142.75;100.00;78247.78;5038510;28;20029;-68
2021/11/09 11:47:21;;;;;;;35.45;11.93;;;;;;;-142.75;100.00;78239.91;5018398;28;20068;-69
2021/11/09 11:49:50;;;;;;;37.78;12.95;;;;;;;-142.75;100.00;78253.69;5021396;28;20036;-69
2021/11/09 11:52:20;;;;;;;42.72;12.50;;;;;;;-142.75;100.00;78239.91;5033301;28;20498;-70
2021/11/09 11:54:52;;;;;;;39.40;13.13;;;;;;;-142.75;100.00;78216.28;5024664;28;20047;-69
2021/11/09 11:57:44;;;;;;;37.38;12.25;;;;;;;-142.75;100.00;78194.63;5021165;28;20024;-67
2021/11/09 12:00:59;;;;;;;37.35;12.00;;;;;;;-142.75;100.00;78198.56;5040596;28;20067;-69
2021/11/09 12:03:24;;;;;;;34.28;10.48;;;;;;;-142.75;100.00;78188.72;5028108;28;20044;-69
2021/11/09 12:05:51;;;;;;;38.53;10.43;;;;;;;-142.75;100.00;78157.19;5029839;28;20037;-68
2021/11/09 12:08:35;;;;;;;32.58;9.95;;;;;;;-142.75;100.00;78141.44;5041148;28;20820;-70
2021/11/09 12:11:02;;;;;;;31.40;9.60;;;;;;;-142.75;100.00;78129.63;5012502;28;20032;-70
2021/11/09 12:13:28;;;;;;;21.38;8.30;;;;;;;-142.75;100.00;78125.69;5043015;28;20078;-70
2021/11/09 12:16:00;;;;;;;30.88;7.93;;;;;;;-142.75;100.00;78125.69;5020461;28;20029;-70
2021/11/09 12:18:28;;;;;;;27.05;7.72;;;;;;;-142.75;100.00;78119.78;5037252;28;20490;-70
2021/11/09 12:20:59;;;;;;;27.65;6.72;;;;;;;-142.75;100.00;78123.72;5036805;28;20021;-69
2021/11/09 12:23:26;;;;;;;21.60;6.35;;;;;;;-142.75;100.00;78129.63;5025467;28;20104;-70
2021/11/09 12:25:52;;;;;;;20.45;6.07;;;;;;;-142.75;100.00;78123.72;5037575;28;20029;-69
2021/11/09 12:28:17;;;;;;;18.25;6.63;;;;;;;-142.75;100.00;78117.81;5038358;28;20053;-71
2021/11/09 12:30:52;;;;;;;22.50;6.32;;;;;;;-142.75;100.00;78113.88;5019581;28;20435;-70
2021/11/09 12:33:26;;;;;;;19.20;5.65;;;;;;;-142.75;100.00;78161.13;5031489;28;20060;-71
2021/11/09 12:36:11;;;;;;;23.05;6.03;;;;;;;-142.75;100.00;78151.28;5045750;28;20039;-70
2021/11/09 12:38:49;;;;;;;21.08;6.47;;;;;;;-142.75;100.00;78147.34;5013519;28;20037;-70
2021/11/09 12:41:31;;;;;;;18.08;6.65;;;;;;;-142.75;100.00;78147.34;5045011;28;20053;-69
2021/11/09 12:44:01;;;;;;;19.23;6.22;;;;;;;-142.75;100.00;78141.44;5043023;28;20044;-72
2021/11/09 12:46:39;;;;;;;18.63;6.20;;;;;;;-142.75;100.00;78145.38;5045076;28;20029;-70
2021/11/09 12:49:27;;;;;;;19.40;6.47;;;;;;;-142.75;100.00;78135.53;5041549;28;20040;-70
2021/11/09 12:51:55;;;;;;;22.10;6.38;;;;;;;-142.75;100.00;78133.56;5032619;28;20029;-70
2021/11/09 12:54:27;;;;;;;24.00;5.93;;;;;;;-142.75;100.00;78098.13;5037265;28;20035;-68
2021/11/09 12:56:59;;;;;;;18.80;5.22;;;;;;;-142.75;100.00;78102.06;5036924;28;20052;-69
2021/11/09 13:07:40;;;;;;;18.20;5.50;;;;;;;-142.75;100.00;78078.44;5042029;28;20032;-70
2021/11/09 13:10:12;;;;;;;16.23;5.00;;;;;;;-142.75;100.00;78076.47;5038856;28;20491;-70
2021/11/09 13:12:39;;;;;;;17.85;6.07;;;;;;;-142.75;100.00;78084.34;5030419;28;20021;-69
2021/11/09 13:15:07;;;;;;;13.55;5.65;;;;;;;-142.75;100.00;78086.31;5022944;28;20108;-69
2021/11/09 13:17:53;;;;;;;18.77;6.20;;;;;;;-142.75;100.00;78082.38;5037461;28;20556;-69